Time;durP1;ratioP1;P1;durP2;ratioP2;P2;SDS_P1;SDS_P2;PMS_P1;PMS_P2;Temp;Humidity;BMP_temperature;BMP_pressure;BME280_temperature;BME280_humidity;BME280_pressure;Samples;Min_cycle;Max_cycle;Signal;HPM_P1;HPM_P2
2022/01/17 03:47:04;;;;;;;28.70;9.30;;;;;;;;;;5906869;23;20023;-94
2022/01/17 03:58:06;;;;;;;19.98;6.82;;;2.70;82.90;;;;;;5155164;23;20056;-96
2022/01/17 04:00:37;;;;;;;16.38;8.15;;;2.40;83.40;;;;;;4921798;29;20071;-96
2022/01/17 04:03:03;;;;;;;18.80;7.28;;;;;;;;;;4925757;29;20067;-96
2022/01/17 04:05:30;;;;;;;;;;;;;;;;;;4945979;28;20400;-94
2022/01/17 04:07:57;;;;;;;12.77;5.57;;;;;;;;;;4953519;29;19914;-96
2022/01/17 04:10:23;;;;;;;17.63;6.97;;;;;;;;;;4937971;29;20392;-96
2022/01/17 08:01:01;;;;;;;24.90;7.07;;;;;;;;;;4985479;28;20068;-96
2022/01/17 08:03:50;;;;;;;17.92;7.35;;;;;;;;;;4998180;28;20042;-96
2022/01/17 08:07:36;;;;;;;18.88;5.65;;;4.10;92.30;;;;;;4998138;28;20030;-96
2022/01/17 08:28:43;;;;;;;7.68;4.70;;;;;;;;;;5135247;23;20051;-96
2022/01/17 08:31:09;;;;;;;15.10;6.60;;;;;;;;;;4950883;28;20088;-95
2022/01/17 08:33:38;;;;;;;23.42;6.65;;;;;;;;;;4966855;28;20031;-96
2022/01/17 08:43:51;;;;;;;27.60;6.90;;;;;;;;;;4999012;23;20070;-96
2022/01/17 08:46:18;;;;;;;13.73;4.65;;;;;;;;;;4939611;29;20047;-96
2022/01/17 08:48:45;;;;;;;;;;;4.20;93.40;;;;;;4970958;28;20043;-96
2022/01/17 08:51:27;;;;;;;14.00;5.97;;;;;;;;;;4970830;29;19914;-96
2022/01/17 08:54:13;;;;;;;23.40;6.13;;;;;;;;;;4968764;28;20632;-96
2022/01/17 08:56:39;;;;;;;23.90;6.18;;;;;;;;;;4970243;28;20031;-96
2022/01/17 08:59:05;;;;;;;17.58;6.78;;;;;;;;;;4976555;28;20027;-96
2022/01/17 09:01:31;;;;;;;12.25;5.25;;;;;;;;;;4963529;28;20062;-96
2022/01/17 09:03:57;;;;;;;29.42;8.48;;;;;;;;;;4954314;28;20029;-96
2022/01/17 09:06:24;;;;;;;21.08;9.05;;;;;;;;;;4943459;28;20031;-96
2022/01/17 09:09:19;;;;;;;13.77;6.18;;;;;;;;;;4971220;28;20051;-96
2022/01/17 09:11:47;;;;;;;24.70;8.65;;;;;;;;;;4933429;29;20028;-96
2022/01/17 09:14:24;;;;;;;18.48;7.47;;;;;;;;;;4933517;28;20034;-97
2022/01/17 09:17:28;;;;;;;26.30;7.65;;;4.50;92.90;;;;;;4940825;29;20035;-96
2022/01/17 09:19:54;;;;;;;25.95;5.90;;;;;;;;;;4909711;29;20039;-96
2022/01/17 09:22:20;;;;;;;23.23;7.85;;;;;;;;;;4915254;29;20024;-96
2022/01/17 09:24:46;;;;;;;18.20;6.97;;;;;;;;;;4906295;29;20039;-96
2022/01/17 09:27:16;;;;;;;21.63;6.75;;;;;;;;;;4910122;29;20101;-96
2022/01/17 09:29:42;;;;;;;16.05;6.88;;;;;;;;;;4917168;29;20132;-96
2022/01/17 09:32:09;;;;;;;20.02;7.55;;;;;;;;;;4922213;29;20127;-96
2022/01/17 09:34:35;;;;;;;16.92;6.63;;;;;;;;;;4921414;29;20036;-96
2022/01/17 09:37:04;;;;;;;11.70;5.18;;;;;;;;;;4906227;29;20044;-96
2022/01/17 09:39:30;;;;;;;20.70;7.07;;;;;;;;;;4902254;29;20044;-96
2022/01/17 09:41:57;;;;;;;13.93;6.17;;;;;;;;;;4935523;29;20047;-96
2022/01/17 09:44:26;;;;;;;17.37;7.57;;;5.30;91.70;;;;;;4967596;28;20594;-96
2022/01/17 09:46:58;;;;;;;20.77;5.88;;;;;;;;;;4977425;28;20786;-96
2022/01/17 09:49:34;;;;;;;17.17;6.97;;;;;;;;;;4998495;28;20050;-96
2022/01/17 09:52:06;;;;;;;15.48;6.00;;;;;;;;;;4991546;28;20075;-96
2022/01/17 09:54:35;;;;;;;10.43;5.65;;;;;;;;;;4965081;28;20023;-96
2022/01/17 09:57:22;;;;;;;13.75;7.53;;;;;;;;;;4950026;29;20100;-96
2022/01/17 10:00:09;;;;;;;11.63;5.53;;;;;;;;;;4957644;28;20082;-96
2022/01/17 10:02:36;;;;;;;14.23;5.90;;;;;;;;;;4943729;29;20028;-96
2022/01/17 10:05:03;;;;;;;20.35;7.13;;;;;;;;;;4952209;28;20027;-96
2022/01/17 10:07:48;;;;;;;14.98;6.88;;;;;;;;;;4940991;28;20023;-96
2022/01/17 10:10:14;;;;;;;13.00;5.05;;;;;;;;;;4956073;28;20834;-96
2022/01/17 10:12:39;;;;;;;15.45;5.63;;;;;;;;;;4933598;28;20051;-96
2022/01/17 10:15:15;;;;;;;9.75;6.50;;;;;;;;;;4962550;28;20032;-96
2022/01/17 10:29:32;;;;;;;17.17;8.32;;;;;;;;;;4980025;23;20922;-95
2022/01/17 10:34:55;;;;;;;12.20;6.32;;;;;;;;;;4965445;28;20105;-95
2022/01/17 10:37:25;;;;;;;10.98;5.68;;;;;;;;;;4971007;28;20027;-96
2022/01/17 10:40:02;;;;;;;13.68;6.80;;;;;;;;;;4957707;28;20728;-96
2022/01/17 10:42:41;;;;;;;13.35;7.30;;;;;;;;;;4923975;29;20051;-96
2022/01/17 10:45:08;;;;;;;;;;;6.10;91.00;;;;;;4948556;28;20722;-96
2022/01/17 10:47:37;;;;;;;10.80;4.45;;;;;;;;;;4964538;28;19914;-96
2022/01/17 10:50:10;;;;;;;13.93;5.25;;;;;;;;;;4950465;28;20089;-95
2022/01/17 10:52:44;;;;;;;10.82;6.38;;;;;;;;;;4960827;28;20034;-96
2022/01/17 10:55:24;;;;;;;14.18;6.15;;;;;;;;;;4969274;29;20027;-96
2022/01/17 10:57:53;;;;;;;21.77;5.78;;;;;;;;;;4963822;28;20047;-96
2022/01/17 12:39:46;;;;;;;9.20;3.25;;;;;;;;;;5790589;23;20381;-95
2022/01/17 12:42:13;;;;;;;7.78;4.43;;;;;;;;;;4945598;29;20039;-95
2022/01/17 12:44:43;;;;;;;7.38;3.65;;;;;;;;;;4952661;28;20078;-96
2022/01/17 12:47:09;;;;;;;11.07;4.28;;;;;;;;;;4935850;28;20063;-96
2022/01/17 12:49:35;;;;;;;9.55;3.53;;;;;;;;;;4932986;28;20061;-94
2022/01/17 12:52:01;;;;;;;10.45;3.20;;;;;;;;;;4928901;29;20425;-95
2022/01/17 12:54:28;;;;;;;5.63;3.83;;;;;;;;;;4950365;28;20051;-96
2022/01/17 13:02:10;;;;;;;11.00;5.05;;;;;;;;;;5335322;23;19925;-94
2022/01/17 13:04:36;;;;;;;10.68;3.88;;;;;;;;;;4944359;28;20031;-96
2022/01/17 13:07:06;;;;;;;10.65;3.83;;;;;;;;;;4961571;28;20044;-96
2022/01/17 13:12:10;;;;;;;10.05;4.95;;;;;;;;;;5966519;23;20040;-96
2022/01/17 13:14:36;;;;;;;13.07;3.75;;;;;;;;;;4932745;29;20055;-96
2022/01/17 13:17:07;;;;;;;8.57;3.65;;;;;;;;;;4946284;28;20024;-96
2022/01/17 13:19:36;;;;;;;11.90;6.18;;;;;;;;;;4940541;28;20074;-95
2022/01/17 13:22:03;;;;;;;9.38;3.92;;;;;;;;;;4972588;28;20043;-96
2022/01/17 13:24:36;;;;;;;9.40;5.00;;;;;;;;;;4957149;28;20050;-96
2022/01/17 13:40:13;;;;;;;8.80;3.35;;;;;;;;;;5140135;23;20055;-96
2022/01/17 13:42:46;;;;;;;7.70;4.32;;;;;;;;;;4950919;28;20039;-95
2022/01/17 13:45:12;;;;;;;7.47;3.50;;;;;;;;;;4941834;28;20179;-96
2022/01/17 13:47:39;;;;;;;10.90;4.47;;;;;;;;;;4964725;28;20072;-96
2022/01/17 13:50:23;;;;;;;10.98;4.18;;;;;;;;;;4963526;28;20095;-96
2022/01/17 13:58:04;;;;;;;12.05;5.57;;;;;;;;;;5400637;23;20059;-95
2022/01/17 14:00:38;;;;;;;7.72;4.10;;;;;;;;;;4953308;28;20034;-96
2022/01/17 14:03:05;;;;;;;10.25;4.10;;;;;;;;;;4937618;28;20522;-96
2022/01/17 14:05:38;;;;;;;7.90;3.35;;;;;;;;;;4951362;28;20094;-95
2022/01/17 14:13:20;;;;;;;13.98;4.40;;;;;;;;;;4997260;23;20082;-96
2022/01/17 14:16:11;;;;;;;8.25;4.03;;;;;;;;;;4938428;29;20039;-96
2022/01/17 14:19:01;;;;;;;8.95;4.03;;;;;;;;;;4934782;29;20289;-96
2022/01/17 14:21:45;;;;;;;5.82;2.78;;;;;;;;;;4933800;29;20036;-96
2022/01/17 14:24:48;;;;;;;10.00;4.07;;;6.00;93.90;;;;;;4960288;28;20055;-96
2022/01/17 14:27:18;;;;;;;9.25;3.83;;;;;;;;;;4959799;29;20028;-95
2022/01/17 14:33:17;;;;;;;9.38;3.47;;;;;;;;;;4946685;29;20045;-96
2022/01/17 14:36:06;;;;;;;9.40;4.43;;;;;;;;;;4929046;29;20039;-96
2022/01/17 14:38:32;;;;;;;6.30;2.78;;;;;;;;;;4930756;29;20167;-96
2022/01/17 14:40:59;;;;;;;6.13;2.42;;;;;;;;;;4918441;29;20040;-96
2022/01/17 14:43:32;;;;;;;4.78;3.05;;;;;;;;;;4944659;29;20019;-95
2022/01/17 14:46:16;;;;;;;13.63;3.55;;;;;;;;;;4918961;29;20031;-95
2022/01/17 14:48:43;;;;;;;5.72;3.05;;;;;;;;;;4925043;29;20036;-96
2022/01/17 14:51:19;;;;;;;5.50;2.47;;;;;;;;;;4911206;29;20028;-95
2022/01/17 14:53:47;;;;;;;8.77;3.72;;;;;;;;;;4937213;29;20088;-95
2022/01/17 15:01:59;;;;;;;4.50;2.72;;;;;;;;;;4932203;29;20043;-96
2022/01/17 15:04:25;;;;;;;7.63;3.83;;;;;;;;;;4946517;29;20027;-96
2022/01/17 15:06:51;;;;;;;16.10;3.33;;;;;;;;;;4931565;29;20026;-95
2022/01/17 15:09:17;;;;;;;12.55;2.92;;;;;;;;;;4917027;29;20126;-94
2022/01/17 15:11:55;;;;;;;8.43;3.88;;;;;;;;;;4943496;29;20059;-96
2022/01/17 15:17:29;;;;;;;9.65;5.25;;;6.10;93.20;;;;;;4929860;29;20039;-96
2022/01/17 15:20:33;;;;;;;7.68;3.83;;;;;;;;;;4929137;29;20100;-96
2022/01/17 15:23:00;;;;;;;7.47;4.25;;;;;;;;;;4916317;29;20040;-96
2022/01/17 15:25:26;;;;;;;18.23;7.23;;;;;;;;;;4917754;29;20114;-95
2022/01/17 15:27:52;;;;;;;20.55;7.82;;;;;;;;;;4893293;29;20027;-96
2022/01/17 15:30:19;;;;;;;14.73;7.50;;;;;;;;;;4907914;29;20099;-94
2022/01/17 15:32:47;;;;;;;27.02;10.48;;;;;;;;;;4902849;29;20167;-96
2022/01/17 15:35:13;;;;;;;20.13;7.90;;;;;;;;;;4916215;29;20036;-94
2022/01/17 15:37:39;;;;;;;24.60;10.02;;;;;;;;;;4932172;29;20050;-95
2022/01/17 15:40:06;;;;;;;26.55;9.07;;;;;;;;;;4918449;29;20028;-95
2022/01/17 15:42:32;;;;;;;26.77;11.95;;;;;;;;;;4915320;29;20042;-96
2022/01/17 15:44:58;;;;;;;20.42;9.60;;;;;;;;;;4929329;29;20036;-95
2022/01/17 15:47:24;;;;;;;22.75;8.00;;;;;;;;;;4935790;29;20039;-96
2022/01/17 15:59:20;;;;;;;19.23;9.73;;;;;;;;;;5019013;28;20052;-96
2022/01/17 16:01:54;;;;;;;13.93;6.43;;;;;;;;;;4968985;28;20035;-96
2022/01/17 16:04:42;;;;;;;14.93;7.78;;;;;;;;;;5013747;28;20648;-96
2022/01/17 16:07:17;;;;;;;19.15;6.30;;;;;;;;;;4958172;28;20047;-95
2022/01/17 16:09:43;;;;;;;23.17;7.75;;;;;;;;;;4950023;28;20130;-96
2022/01/17 16:12:09;;;;;;;15.93;6.55;;;;;;;;;;4956115;28;20035;-96
2022/01/17 16:14:35;;;;;;;25.17;7.85;;;;;;;;;;4956283;28;20054;-96
2022/01/17 16:17:02;;;;;;;24.65;7.65;;;;;;;;;;4972435;28;20043;-96
2022/01/17 16:19:28;;;;;;;24.57;9.47;;;;;;;;;;4950070;28;20525;-96
2022/01/17 16:21:54;;;;;;;14.00;6.00;;;;;;;;;;4957209;28;20034;-95
2022/01/17 16:24:20;;;;;;;20.02;7.60;;;;;;;;;;4955668;28;20043;-95
2022/01/17 16:26:46;;;;;;;14.55;6.32;;;;;;;;;;4959695;28;20155;-95
2022/01/17 16:29:12;;;;;;;32.50;8.30;;;;;;;;;;4956086;28;20043;-94
2022/01/17 16:31:43;;;;;;;17.55;6.97;;;;;;;;;;4967392;28;20129;-95
2022/01/17 16:34:36;;;;;;;18.77;7.57;;;;;;;;;;4976722;28;20031;-96
2022/01/17 16:37:02;;;;;;;21.08;7.60;;;;;;;;;;4922014;29;20064;-96
2022/01/17 16:39:30;;;;;;;22.73;8.93;;;;;;;;;;4923210;29;20058;-95
2022/01/17 16:41:56;;;;;;;20.85;8.00;;;;;;;;;;4932227;29;20035;-96
2022/01/17 16:44:22;;;;;;;25.48;9.50;;;;;;;;;;4929634;29;20048;-95
2022/01/17 16:46:48;;;;;;;23.45;9.50;;;;;;;;;;4925811;28;20486;-96
2022/01/17 16:49:14;;;;;;;19.58;7.97;;;;;;;;;;4932238;29;20126;-96
2022/01/17 16:51:40;;;;;;;23.48;6.60;;;;;;;;;;4929355;29;20119;-95
2022/01/17 16:54:07;;;;;;;24.83;10.02;;;;;;;;;;4930433;29;20027;-95
2022/01/17 16:56:34;;;;;;;19.20;8.02;;;;;;;;;;4931321;29;20036;-95
2022/01/17 16:59:00;;;;;;;20.52;7.70;;;;;;;;;;4924785;29;20864;-95
2022/01/17 17:01:26;;;;;;;22.90;9.05;;;;;;;;;;4929770;29;20067;-95
2022/01/17 17:03:52;;;;;;;15.00;6.55;;;;;;;;;;4915338;29;20085;-96
2022/01/17 17:06:18;;;;;;;25.67;8.13;;;;;;;;;;4914109;29;20046;-96
2022/01/17 17:08:44;;;;;;;17.65;6.97;;;;;;;;;;4953251;29;20134;-96
2022/01/17 17:11:11;;;;;;;20.40;9.20;;;;;;;;;;4945760;29;20039;-96
2022/01/17 17:13:40;;;;;;;19.92;8.90;;;;;;;;;;4967320;28;20094;-96
2022/01/17 17:16:19;;;;;;;25.00;8.23;;;;;;;;;;5006948;28;20422;-96
2022/01/17 17:18:59;;;;;;;31.27;9.05;;;;;;;;;;5013222;28;20034;-96
2022/01/17 17:21:34;;;;;;;31.10;9.38;;;;;;;;;;5000993;28;20488;-96
2022/01/17 17:24:08;;;;;;;18.95;9.23;;;;;;;;;;5003981;28;20086;-96
2022/01/17 17:26:35;;;;;;;23.67;9.40;;;;;;;;;;4996876;28;20030;-96
2022/01/17 17:29:02;;;;;;;21.02;7.53;;;;;;;;;;5012266;28;20122;-96
2022/01/17 17:31:34;;;;;;;12.18;6.72;;;;;;;;;;5000107;28;20026;-96
2022/01/17 17:34:08;;;;;;;18.35;6.95;;;;;;;;;;4972558;28;20038;-96
2022/01/17 17:36:35;;;;;;;16.27;7.25;;;;;;;;;;5006287;28;20082;-96
2022/01/17 17:39:26;;;;;;;19.50;6.07;;;;;;;;;;5011354;28;20022;-96
2022/01/17 17:42:14;;;;;;;16.77;6.32;;;;;;;;;;5005106;28;20030;-96
2022/01/17 17:44:44;;;;;;;22.35;9.75;;;;;;;;;;5006013;28;20041;-96
2022/01/17 17:47:11;;;;;;;15.05;5.80;;;;;;;;;;5002395;28;20022;-96
2022/01/17 17:49:39;;;;;;;11.10;6.30;;;;;;;;;;5010826;28;20045;-96
2022/01/17 17:52:07;;;;;;;15.38;6.68;;;;;;;;;;5007227;28;20018;-96
2022/01/17 17:54:57;;;;;;;17.73;6.90;;;;;;;;;;5007095;28;20034;-96
2022/01/17 17:57:53;;;;;;;16.45;7.10;;;;;;;;;;4998255;28;20058;-96
2022/01/17 18:00:22;;;;;;;;;;;;;;;;;;5003289;28;20035;-96
2022/01/17 18:02:50;;;;;;;26.52;5.88;;;;;;;;;;5000739;28;19905;-96
2022/01/17 18:05:16;;;;;;;16.85;6.53;;;;;;;;;;5016609;28;20042;-96
2022/01/17 18:07:43;;;;;;;19.40;6.57;;;;;;;;;;4997132;28;20058;-96
2022/01/17 18:10:10;;;;;;;19.38;6.93;;;;;;;;;;5002982;28;20049;-96
2022/01/17 18:12:36;;;;;;;18.45;7.45;;;;;;;;;;5003234;28;20092;-96
2022/01/17 18:15:12;;;;;;;17.38;7.13;;;;;;;;;;5002284;28;20049;-96
2022/01/17 18:17:39;;;;;;;15.45;6.75;;;;;;;;;;4993582;28;20100;-96
2022/01/17 18:20:09;;;;;;;16.83;6.97;;;;;;;;;;5001061;28;20026;-96
2022/01/17 18:22:37;;;;;;;18.27;5.35;;;;;;;;;;4998994;28;20038;-96
2022/01/17 18:25:07;;;;;;;16.38;6.43;;;;;;;;;;5003488;28;20026;-96
2022/01/17 18:27:35;;;;;;;12.10;5.90;;;;;;;;;;5009779;28;20403;-96
2022/01/17 18:30:18;;;;;;;12.77;6.07;;;;;;;;;;5010722;28;20041;-96
2022/01/17 18:33:04;;;;;;;16.80;5.88;;;;;;;;;;4997671;28;20038;-96
2022/01/17 18:35:31;;;;;;;15.90;5.65;;;;;;;;;;5008715;28;20455;-96
2022/01/17 18:38:04;;;;;;;12.82;6.18;;;;;;;;;;4995542;28;20026;-96
2022/01/17 18:40:33;;;;;;;11.32;6.30;;;;;;;;;;5004841;28;20117;-96
2022/01/17 18:43:08;;;;;;;15.10;5.07;;;;;;;;;;5000504;28;20117;-96
2022/01/17 18:45:35;;;;;;;12.30;5.78;;;;;;;;;;5001654;28;20034;-96
2022/01/17 18:48:02;;;;;;;13.98;4.43;;;;;;;;;;4997833;28;20042;-96
2022/01/17 18:50:30;;;;;;;10.52;5.22;;;;;;;;;;4998452;28;20030;-96
2022/01/17 18:52:56;;;;;;;14.35;5.00;;;;;;;;;;5004517;28;20510;-96
2022/01/17 18:55:24;;;;;;;17.20;5.65;;;;;;;;;;5010169;28;20014;-96
2022/01/17 18:57:55;;;;;;;14.27;5.80;;;;;;;;;;4993702;28;20073;-96
2022/01/17 19:00:22;;;;;;;9.90;4.53;;;;;;;;;;5007861;28;20026;-96
2022/01/17 19:02:48;;;;;;;13.70;6.97;;;;;;;;;;4998732;28;20022;-96
2022/01/17 19:05:15;;;;;;;14.00;5.07;;;;;;;;;;4999708;28;20054;-96
2022/01/17 19:07:41;;;;;;;9.07;4.43;;;;;;;;;;4994027;28;20026;-96
2022/01/17 19:10:10;;;;;;;11.70;5.85;;;;;;;;;;5007084;28;20376;-96
2022/01/17 19:12:38;;;;;;;11.80;4.47;;;;;;;;;;4999888;28;20510;-96
2022/01/17 19:15:04;;;;;;;12.20;5.90;;;;;;;;;;4997963;28;20033;-96
2022/01/17 19:22:55;;;;;;;7.07;3.97;;;;;;;;;;4997123;28;20369;-96
2022/01/17 19:25:22;;;;;;;17.30;5.63;;;;;;;;;;4998603;28;20091;-96
2022/01/17 19:27:50;;;;;;;10.40;4.75;;;;;;;;;;5001678;28;20117;-96
2022/01/17 19:30:20;;;;;;;10.82;5.72;;;;;;;;;;4983612;28;20042;-96
2022/01/17 19:32:50;;;;;;;11.88;4.20;;;;;;;;;;4984977;28;20074;-96
2022/01/17 19:35:34;;;;;;;9.45;4.45;;;;;;;;;;4981565;28;20031;-96
2022/01/17 19:38:02;;;;;;;10.93;4.32;;;;;;;;;;4979608;28;20035;-96
2022/01/17 19:40:33;;;;;;;7.65;4.93;;;;;;;;;;4988110;28;20034;-96
2022/01/17 19:43:02;;;;;;;12.32;5.25;;;;;;;;;;4976679;28;20065;-96
2022/01/17 19:45:34;;;;;;;10.80;5.05;;;;;;;;;;4981787;28;20508;-96
2022/01/17 19:48:07;;;;;;;12.93;4.50;;;;;;;;;;4992071;28;20051;-96
2022/01/17 19:50:43;;;;;;;12.73;5.32;;;;;;;;;;4984832;28;20122;-96
2022/01/17 19:53:09;;;;;;;22.00;6.50;;;;;;;;;;4958274;28;20854;-96
2022/01/17 19:55:38;;;;;;;16.33;6.70;;;;;;;;;;4975062;28;20046;-96
2022/01/17 19:58:04;;;;;;;15.93;5.65;;;;;;;;;;4970749;28;20051;-96
2022/01/17 20:00:33;;;;;;;11.45;6.35;;;;;;;;;;4922308;29;20035;-96
2022/01/17 20:02:59;;;;;;;18.65;6.22;;;;;;;;;;4973356;28;20109;-96
2022/01/17 20:05:27;;;;;;;15.93;6.53;;;;;;;;;;4955961;28;20027;-96
2022/01/17 20:07:53;;;;;;;24.30;9.45;;;;;;;;;;4962440;28;20054;-96
2022/01/17 20:10:20;;;;;;;24.98;9.57;;;;;;;;;;4977512;28;20061;-96
2022/01/17 20:12:51;;;;;;;9.02;4.50;;;;;;;;;;4975037;28;20022;-96
2022/01/17 20:15:18;;;;;;;13.13;6.93;;;;;;;;;;4993808;28;20045;-96
2022/01/17 20:17:45;;;;;;;11.35;4.78;;;;;;;;;;4982814;28;20054;-96
2022/01/17 20:20:16;;;;;;;14.38;4.88;;;;;;;;;;4993570;28;20037;-96
2022/01/17 20:22:43;;;;;;;13.65;5.28;;;;;;;;;;4986769;28;20035;-96
2022/01/17 20:25:09;;;;;;;14.27;6.43;;;;;;;;;;4999863;28;20030;-96
2022/01/17 20:27:51;;;;;;;11.82;4.57;;;;;;;;;;4991214;28;20042;-96
2022/01/17 20:30:18;;;;;;;4.55;3.80;;;;;;;;;;4984944;28;20031;-96
2022/01/17 20:32:48;;;;;;;4.50;2.53;;;;;;;;;;4964900;28;20034;-96
2022/01/17 20:35:17;;;;;;;15.00;5.35;;;;;;;;;;4980114;28;20039;-96
2022/01/17 20:37:43;;;;;;;14.60;5.43;;;;;;;;;;4965669;28;20027;-96
2022/01/17 20:40:18;;;;;;;9.27;4.40;;;;;;;;;;4985174;28;20035;-96
2022/01/17 20:42:44;;;;;;;5.30;3.75;;;;;;;;;;4978344;28;20373;-96
2022/01/17 20:45:11;;;;;;;9.27;3.08;;;;;;;;;;4997015;28;20031;-96
2022/01/17 20:47:37;;;;;;;5.30;3.72;;;;;;;;;;4983152;28;20029;-96
2022/01/17 20:50:05;;;;;;;5.68;2.65;;;;;;;;;;4981547;28;20042;-96
2022/01/17 20:52:35;;;;;;;4.93;3.35;;;;;;;;;;4977720;28;20027;-96
2022/01/17 20:55:02;;;;;;;6.85;3.08;;;;;;;;;;4978972;28;20098;-96
2022/01/17 20:57:29;;;;;;;3.88;3.50;;;;;;;;;;4978270;28;20396;-96
2022/01/17 20:59:55;;;;;;;7.38;4.05;;;;;;;;;;4997566;28;20027;-96
2022/01/17 21:02:22;;;;;;;3.30;2.85;;;;;;;;;;4998582;28;20113;-96
2022/01/17 21:04:50;;;;;;;4.57;1.95;;;;;;;;;;5000213;28;20031;-96
2022/01/17 21:07:16;;;;;;;5.50;1.98;;;;;;;;;;5000625;28;20030;-96
2022/01/17 21:09:42;;;;;;;2.33;1.67;;;;;;;;;;5003063;28;20034;-96
2022/01/17 21:12:19;;;;;;;3.28;2.40;;;;;;;;;;5002142;28;20023;-96
2022/01/17 21:14:45;;;;;;;1.13;1.02;;;;;;;;;;5007945;28;20109;-96
2022/01/17 21:17:11;;;;;;;10.30;1.77;;;;;;;;;;4983009;28;20408;-96
2022/01/17 21:19:44;;;;;;;3.20;1.27;;;;;;;;;;5008741;28;20044;-96
2022/01/17 21:22:11;;;;;;;4.25;1.42;;;;;;;;;;5005677;28;20018;-96
2022/01/17 21:24:39;;;;;;;3.50;1.40;;;;;;;;;;5004636;28;20045;-96
2022/01/17 21:27:05;;;;;;;2.47;0.98;;;;;;;;;;4996345;28;20026;-96
2022/01/17 21:29:33;;;;;;;2.25;0.60;;;;;;;;;;5000097;28;20544;-96
2022/01/17 21:31:59;;;;;;;0.40;0.40;;;;;;;;;;4998330;28;20029;-96
2022/01/17 21:34:25;;;;;;;1.08;0.85;;;;;;;;;;4999743;28;20507;-96
2022/01/17 21:36:53;;;;;;;1.08;0.82;;;;;;;;;;5002652;28;20487;-96
2022/01/17 21:39:19;;;;;;;1.63;1.08;;;;;;;;;;4995443;28;20116;-96
2022/01/17 21:41:45;;;;;;;0.80;0.70;;;;;;;;;;4997137;28;20037;-96
2022/01/17 21:44:11;;;;;;;1.92;0.63;;;;;;;;;;4998513;28;20022;-96
2022/01/17 21:46:38;;;;;;;0.90;0.70;;;;;;;;;;4996915;28;20027;-96
2022/01/17 21:49:07;;;;;;;0.90;0.90;;;;;;;;;;4996596;28;20072;-96
2022/01/17 21:51:33;;;;;;;2.47;0.80;;;;;;;;;;4995325;28;20038;-96
2022/01/17 21:54:00;;;;;;;1.70;1.25;;;;;;;;;;5004374;28;20026;-96
2022/01/17 21:56:38;;;;;;;0.73;0.73;;;;;;;;;;4994737;28;20030;-96
2022/01/17 21:59:05;;;;;;;3.92;1.08;;;;;;;;;;4995790;28;20050;-96
2022/01/17 22:01:33;;;;;;;1.50;1.10;;;;;;;;;;5000801;28;20026;-96
2022/01/17 22:04:04;;;;;;;1.60;1.40;;;;;;;;;;4988736;28;20057;-96
2022/01/17 22:06:32;;;;;;;1.70;0.88;;;;;;;;;;5005048;28;20050;-96
2022/01/17 22:08:59;;;;;;;2.47;2.00;;;;;;;;;;4999432;28;20045;-96
2022/01/17 22:11:30;;;;;;;9.63;3.70;;;;;;;;;;5000002;28;20030;-96
2022/01/17 22:13:56;;;;;;;6.55;3.58;;;;;;;;;;4998561;28;20022;-96
2022/01/17 22:16:23;;;;;;;8.60;4.00;;;;;;;;;;4997186;28;20031;-96
2022/01/17 22:18:51;;;;;;;4.95;3.13;;;;;;;;;;4996555;28;20088;-96
2022/01/17 22:21:18;;;;;;;8.05;2.10;;;;;;;;;;4984732;28;20558;-96
2022/01/17 22:23:51;;;;;;;4.50;2.13;;;;;;;;;;5002343;28;20043;-96
2022/01/17 22:26:21;;;;;;;5.97;2.03;;;;;;;;;;4997660;28;20039;-96
2022/01/17 22:28:51;;;;;;;5.40;1.90;;;;;;;;;;4998333;28;20574;-96
2022/01/17 22:31:18;;;;;;;1.40;1.30;;;;;;;;;;5003629;28;20113;-96
2022/01/17 22:33:45;;;;;;;2.33;1.63;;;;;;;;;;4989444;28;20414;-96
2022/01/17 22:36:12;;;;;;;2.00;1.10;;;;;;;;;;4997978;28;20053;-96
2022/01/17 22:38:39;;;;;;;0.80;0.80;;;;;;;;;;5004643;28;20072;-96
2022/01/17 22:41:06;;;;;;;1.10;1.00;;;;;;;;;;4999152;28;20498;-96
2022/01/17 22:43:32;;;;;;;1.10;0.90;;;;;;;;;;4998547;28;20455;-96
2022/01/17 22:46:03;;;;;;;1.45;1.10;;;;;;;;;;4997090;28;20018;-96
2022/01/17 22:48:30;;;;;;;3.72;1.27;;;;;;;;;;4992028;28;20073;-96
2022/01/17 22:50:59;;;;;;;9.00;3.45;;;;;;;;;;5003255;28;20045;-96
2022/01/17 22:53:25;;;;;;;16.52;5.63;;;;;;;;;;4993872;28;20049;-96
2022/01/17 22:55:51;;;;;;;16.98;6.10;;;;;;;;;;4999896;28;20046;-96
2022/01/17 22:58:18;;;;;;;13.30;5.72;;;;;;;;;;4989078;28;20503;-96
2022/01/17 23:00:44;;;;;;;13.15;4.00;;;;;;;;;;4998355;28;20109;-96
2022/01/17 23:03:10;;;;;;;5.20;2.80;;;;;;;;;;4990882;28;20050;-96
2022/01/17 23:05:36;;;;;;;9.07;3.15;;;;;;;;;;5003728;28;20038;-96
2022/01/17 23:08:04;;;;;;;6.50;3.50;;;;;;;;;;5005625;28;20035;-96
2022/01/17 23:10:31;;;;;;;7.95;4.28;;;;;;;;;;4996117;28;20488;-96
2022/01/17 23:12:57;;;;;;;;;;;4.70;92.00;;;;;;5013435;28;20045;-96
2022/01/17 23:15:27;;;;;;;6.65;2.63;;;;;;;;;;5017408;28;19909;-96
2022/01/17 23:17:58;;;;;;;5.43;3.58;;;;;;;;;;4996055;28;20029;-96
2022/01/17 23:20:28;;;;;;;6.95;3.00;;;;;;;;;;5007567;28;20039;-96
2022/01/17 23:23:05;;;;;;;6.90;3.88;;;;;;;;;;5008149;28;20455;-96
2022/01/17 23:25:31;;;;;;;4.63;2.33;;;;;;;;;;4980078;28;20034;-96
2022/01/17 23:27:59;;;;;;;6.18;2.45;;;;;;;;;;4997100;28;20046;-96
2022/01/17 23:30:41;;;;;;;11.52;3.65;;;;;;;;;;5003886;28;20035;-96
2022/01/17 23:35:59;;;;;;;4.45;2.80;;;;;;;;;;4999186;28;20491;-96
2022/01/17 23:38:25;;;;;;;7.93;3.90;;;;;;;;;;5006185;28;20041;-96
2022/01/17 23:40:59;;;;;;;8.93;3.25;;;;;;;;;;5011289;28;20104;-96
2022/01/17 23:43:26;;;;;;;8.98;3.80;;;;;;;;;;4997749;28;20031;-96
2022/01/17 23:45:52;;;;;;;8.05;3.92;;;;;;;;;;4997671;28;20038;-96
2022/01/17 23:48:19;;;;;;;6.63;2.30;;;;;;;;;;4996695;28;20046;-96
2022/01/17 23:50:45;;;;;;;7.60;3.88;;;;;;;;;;5000078;28;20034;-95
2022/01/17 23:53:12;;;;;;;5.40;3.00;;;;;;;;;;5005408;28;20030;-96
2022/01/17 23:55:38;;;;;;;5.68;2.88;;;;;;;;;;4997115;28;20133;-96
2022/01/17 23:58:18;;;;;;;6.15;2.70;;;;;;;;;;4976873;28;20038;-96
